sensor_id;sensor_type;location;lat;lon;timestamp;P1;durP1;ratioP1;P2;durP2;ratioP2
46755;SDS011;32506;52.826;-1.192;2023-05-18T00:00:06;4.35;;;2.63;;
46755;SDS011;32506;52.826;-1.192;2023-05-18T00:02:38;5.57;;;2.92;;
46755;SDS011;32506;52.826;-1.192;2023-05-18T00:05:05;5.75;;;2.70;;
46755;SDS011;32506;52.826;-1.192;2023-05-18T00:07:32;6.57;;;2.63;;
46755;SDS011;32506;52.826;-1.192;2023-05-18T00:09:58;7.53;;;3.08;;
46755;SDS011;32506;52.826;-1.192;2023-05-18T00:12:25;5.57;;;2.80;;
46755;SDS011;32506;52.826;-1.192;2023-05-18T00:14:50;4.30;;;2.58;;
46755;SDS011;32506;52.826;-1.192;2023-05-18T00:17:16;7.57;;;3.78;;
46755;SDS011;32506;52.826;-1.192;2023-05-18T00:19:41;7.68;;;3.17;;
46755;SDS011;32506;52.826;-1.192;2023-05-18T00:22:10;7.38;;;3.10;;
46755;SDS011;32506;52.826;-1.192;2023-05-18T00:24:42;10.85;;;4.13;;
46755;SDS011;32506;52.826;-1.192;2023-05-18T00:27:07;9.38;;;4.20;;
46755;SDS011;32506;52.826;-1.192;2023-05-18T00:29:33;8.02;;;3.65;;
46755;SDS011;32506;52.826;-1.192;2023-05-18T00:31:58;6.88;;;2.85;;
46755;SDS011;32506;52.826;-1.192;2023-05-18T00:34:24;10.98;;;4.00;;
46755;SDS011;32506;52.826;-1.192;2023-05-18T00:36:50;6.55;;;3.58;;
46755;SDS011;32506;52.826;-1.192;2023-05-18T00:39:15;7.95;;;3.25;;
46755;SDS011;32506;52.826;-1.192;2023-05-18T00:41:41;6.70;;;3.38;;
46755;SDS011;32506;52.826;-1.192;2023-05-18T00:44:06;8.80;;;3.80;;
46755;SDS011;32506;52.826;-1.192;2023-05-18T00:46:32;8.70;;;3.53;;
46755;SDS011;32506;52.826;-1.192;2023-05-18T00:48:57;5.90;;;2.85;;
46755;SDS011;32506;52.826;-1.192;2023-05-18T00:51:25;9.13;;;3.83;;
46755;SDS011;32506;52.826;-1.192;2023-05-18T00:53:51;7.28;;;3.35;;
46755;SDS011;32506;52.826;-1.192;2023-05-18T00:56:18;6.90;;;3.35;;
46755;SDS011;32506;52.826;-1.192;2023-05-18T00:58:47;9.55;;;3.80;;
46755;SDS011;32506;52.826;-1.192;2023-05-18T01:01:14;10.80;;;3.90;;
46755;SDS011;32506;52.826;-1.192;2023-05-18T01:03:41;8.30;;;3.97;;
46755;SDS011;32506;52.826;-1.192;2023-05-18T01:06:07;8.10;;;3.38;;
46755;SDS011;32506;52.826;-1.192;2023-05-18T01:08:34;7.05;;;3.75;;
46755;SDS011;32506;52.826;-1.192;2023-05-18T01:11:04;7.78;;;3.83;;
46755;SDS011;32506;52.826;-1.192;2023-05-18T01:13:38;9.60;;;3.20;;
46755;SDS011;32506;52.826;-1.192;2023-05-18T01:16:15;7.75;;;3.60;;
46755;SDS011;32506;52.826;-1.192;2023-05-18T01:18:55;6.65;;;3.38;;
46755;SDS011;32506;52.826;-1.192;2023-05-18T01:24:19;6.70;;;3.65;;
46755;SDS011;32506;52.826;-1.192;2023-05-18T01:26:50;6.38;;;3.28;;
46755;SDS011;32506;52.826;-1.192;2023-05-18T01:29:21;7.20;;;3.78;;
46755;SDS011;32506;52.826;-1.192;2023-05-18T01:31:49;5.82;;;3.50;;
46755;SDS011;32506;52.826;-1.192;2023-05-18T01:34:15;7.65;;;3.65;;
46755;SDS011;32506;52.826;-1.192;2023-05-18T01:36:40;6.22;;;3.38;;
46755;SDS011;32506;52.826;-1.192;2023-05-18T01:39:06;7.97;;;4.10;;
46755;SDS011;32506;52.826;-1.192;2023-05-18T01:41:34;10.55;;;4.03;;
46755;SDS011;32506;52.826;-1.192;2023-05-18T01:46:58;9.38;;;4.05;;
46755;SDS011;32506;52.826;-1.192;2023-05-18T01:54:28;8.15;;;4.20;;
46755;SDS011;32506;52.826;-1.192;2023-05-18T01:56:55;7.25;;;3.67;;
46755;SDS011;32506;52.826;-1.192;2023-05-18T01:59:22;6.45;;;3.58;;
46755;SDS011;32506;52.826;-1.192;2023-05-18T02:01:49;6.55;;;4.07;;
46755;SDS011;32506;52.826;-1.192;2023-05-18T02:04:15;11.93;;;4.07;;
46755;SDS011;32506;52.826;-1.192;2023-05-18T02:06:41;7.88;;;4.15;;
46755;SDS011;32506;52.826;-1.192;2023-05-18T02:09:06;7.57;;;3.72;;
46755;SDS011;32506;52.826;-1.192;2023-05-18T02:11:33;7.28;;;4.18;;
46755;SDS011;32506;52.826;-1.192;2023-05-18T02:13:58;9.73;;;3.58;;
46755;SDS011;32506;52.826;-1.192;2023-05-18T02:16:25;6.50;;;3.88;;
46755;SDS011;32506;52.826;-1.192;2023-05-18T02:18:50;7.90;;;3.85;;
46755;SDS011;32506;52.826;-1.192;2023-05-18T02:21:17;7.03;;;3.40;;
46755;SDS011;32506;52.826;-1.192;2023-05-18T02:23:43;5.43;;;3.15;;
46755;SDS011;32506;52.826;-1.192;2023-05-18T02:26:08;8.98;;;4.15;;
46755;SDS011;32506;52.826;-1.192;2023-05-18T02:28:34;7.55;;;3.70;;
46755;SDS011;32506;52.826;-1.192;2023-05-18T02:33:31;6.40;;;3.30;;
46755;SDS011;32506;52.826;-1.192;2023-05-18T02:36:03;6.93;;;3.72;;
46755;SDS011;32506;52.826;-1.192;2023-05-18T02:38:34;6.70;;;3.42;;
46755;SDS011;32506;52.826;-1.192;2023-05-18T02:41:01;8.45;;;3.92;;
46755;SDS011;32506;52.826;-1.192;2023-05-18T02:43:26;8.52;;;3.83;;
46755;SDS011;32506;52.826;-1.192;2023-05-18T02:45:52;6.85;;;3.42;;
46755;SDS011;32506;52.826;-1.192;2023-05-18T02:48:17;6.38;;;3.38;;
46755;SDS011;32506;52.826;-1.192;2023-05-18T02:50:43;6.97;;;3.90;;
46755;SDS011;32506;52.826;-1.192;2023-05-18T02:53:10;6.10;;;3.25;;
46755;SDS011;32506;52.826;-1.192;2023-05-18T02:55:36;8.02;;;3.80;;
46755;SDS011;32506;52.826;-1.192;2023-05-18T02:58:02;8.55;;;3.70;;
46755;SDS011;32506;52.826;-1.192;2023-05-18T03:00:28;8.38;;;3.63;;
46755;SDS011;32506;52.826;-1.192;2023-05-18T03:02:55;8.52;;;3.50;;
46755;SDS011;32506;52.826;-1.192;2023-05-18T03:05:22;6.50;;;3.45;;
46755;SDS011;32506;52.826;-1.192;2023-05-18T03:07:49;7.18;;;3.83;;
46755;SDS011;32506;52.826;-1.192;2023-05-18T03:10:16;7.13;;;3.63;;
46755;SDS011;32506;52.826;-1.192;2023-05-18T03:12:42;8.25;;;3.65;;
46755;SDS011;32506;52.826;-1.192;2023-05-18T03:15:07;7.82;;;3.45;;
46755;SDS011;32506;52.826;-1.192;2023-05-18T03:17:33;8.55;;;3.35;;
46755;SDS011;32506;52.826;-1.192;2023-05-18T03:19:59;7.30;;;3.47;;
46755;SDS011;32506;52.826;-1.192;2023-05-18T03:22:25;8.70;;;3.85;;
46755;SDS011;32506;52.826;-1.192;2023-05-18T03:24:50;8.57;;;3.80;;
46755;SDS011;32506;52.826;-1.192;2023-05-18T03:27:19;7.95;;;3.42;;
46755;SDS011;32506;52.826;-1.192;2023-05-18T03:29:49;6.85;;;3.60;;
46755;SDS011;32506;52.826;-1.192;2023-05-18T03:32:17;8.70;;;3.50;;
46755;SDS011;32506;52.826;-1.192;2023-05-18T03:34:42;7.40;;;3.78;;
46755;SDS011;32506;52.826;-1.192;2023-05-18T03:37:09;6.82;;;3.50;;
46755;SDS011;32506;52.826;-1.192;2023-05-18T03:39:35;8.73;;;4.38;;
46755;SDS011;32506;52.826;-1.192;2023-05-18T03:42:00;8.27;;;3.72;;
46755;SDS011;32506;52.826;-1.192;2023-05-18T03:44:26;8.35;;;3.85;;
46755;SDS011;32506;52.826;-1.192;2023-05-18T03:46:51;7.43;;;3.72;;
46755;SDS011;32506;52.826;-1.192;2023-05-18T03:49:17;8.98;;;3.58;;
46755;SDS011;32506;52.826;-1.192;2023-05-18T03:51:43;6.85;;;4.13;;
46755;SDS011;32506;52.826;-1.192;2023-05-18T03:54:08;8.98;;;3.97;;
46755;SDS011;32506;52.826;-1.192;2023-05-18T03:56:34;9.27;;;4.30;;
46755;SDS011;32506;52.826;-1.192;2023-05-18T03:58:59;8.05;;;4.05;;
46755;SDS011;32506;52.826;-1.192;2023-05-18T04:01:25;6.88;;;3.40;;
46755;SDS011;32506;52.826;-1.192;2023-05-18T04:03:55;6.93;;;3.60;;
46755;SDS011;32506;52.826;-1.192;2023-05-18T04:06:21;5.20;;;3.15;;
46755;SDS011;32506;52.826;-1.192;2023-05-18T04:08:47;6.18;;;3.33;;
46755;SDS011;32506;52.826;-1.192;2023-05-18T04:11:14;5.63;;;3.28;;
46755;SDS011;32506;52.826;-1.192;2023-05-18T04:13:39;7.30;;;3.47;;
46755;SDS011;32506;52.826;-1.192;2023-05-18T04:16:06;7.03;;;3.30;;
46755;SDS011;32506;52.826;-1.192;2023-05-18T04:18:31;6.22;;;3.33;;
46755;SDS011;32506;52.826;-1.192;2023-05-18T04:20:57;5.03;;;2.63;;
46755;SDS011;32506;52.826;-1.192;2023-05-18T04:23:24;6.32;;;3.58;;
46755;SDS011;32506;52.826;-1.192;2023-05-18T04:25:49;5.53;;;3.47;;
46755;SDS011;32506;52.826;-1.192;2023-05-18T04:28:15;7.05;;;3.78;;
46755;SDS011;32506;52.826;-1.192;2023-05-18T04:30:41;6.10;;;3.50;;
46755;SDS011;32506;52.826;-1.192;2023-05-18T04:33:06;5.03;;;3.08;;
46755;SDS011;32506;52.826;-1.192;2023-05-18T04:35:32;8.05;;;3.58;;
46755;SDS011;32506;52.826;-1.192;2023-05-18T04:37:58;6.03;;;3.25;;
46755;SDS011;32506;52.826;-1.192;2023-05-18T04:40:23;5.32;;;2.92;;
46755;SDS011;32506;52.826;-1.192;2023-05-18T04:42:49;5.53;;;3.20;;
46755;SDS011;32506;52.826;-1.192;2023-05-18T04:45:15;6.53;;;3.65;;
46755;SDS011;32506;52.826;-1.192;2023-05-18T04:47:43;5.78;;;3.35;;
46755;SDS011;32506;52.826;-1.192;2023-05-18T04:50:17;5.10;;;2.90;;
46755;SDS011;32506;52.826;-1.192;2023-05-18T04:52:44;5.80;;;3.47;;
46755;SDS011;32506;52.826;-1.192;2023-05-18T04:55:14;6.60;;;3.10;;
46755;SDS011;32506;52.826;-1.192;2023-05-18T04:57:43;4.85;;;2.90;;
46755;SDS011;32506;52.826;-1.192;2023-05-18T05:00:09;6.97;;;3.63;;
46755;SDS011;32506;52.826;-1.192;2023-05-18T05:02:36;5.03;;;2.72;;
46755;SDS011;32506;52.826;-1.192;2023-05-18T05:05:05;6.57;;;3.42;;
46755;SDS011;32506;52.826;-1.192;2023-05-18T05:07:32;6.07;;;3.47;;
46755;SDS011;32506;52.826;-1.192;2023-05-18T05:09:57;8.02;;;3.60;;
46755;SDS011;32506;52.826;-1.192;2023-05-18T05:12:23;8.13;;;4.20;;
46755;SDS011;32506;52.826;-1.192;2023-05-18T05:14:48;6.30;;;3.45;;
46755;SDS011;32506;52.826;-1.192;2023-05-18T05:17:14;8.73;;;4.32;;
46755;SDS011;32506;52.826;-1.192;2023-05-18T05:19:39;8.23;;;4.75;;
46755;SDS011;32506;52.826;-1.192;2023-05-18T05:22:06;6.95;;;3.70;;
46755;SDS011;32506;52.826;-1.192;2023-05-18T05:24:31;7.50;;;3.95;;
46755;SDS011;32506;52.826;-1.192;2023-05-18T05:26:57;8.63;;;4.00;;
46755;SDS011;32506;52.826;-1.192;2023-05-18T05:29:22;8.43;;;4.53;;
46755;SDS011;32506;52.826;-1.192;2023-05-18T05:31:50;8.57;;;4.28;;
46755;SDS011;32506;52.826;-1.192;2023-05-18T05:34:15;7.80;;;3.83;;
46755;SDS011;32506;52.826;-1.192;2023-05-18T05:36:41;10.18;;;3.80;;
46755;SDS011;32506;52.826;-1.192;2023-05-18T05:39:10;8.30;;;4.07;;
46755;SDS011;32506;52.826;-1.192;2023-05-18T05:41:38;6.07;;;3.70;;
46755;SDS011;32506;52.826;-1.192;2023-05-18T05:44:04;7.25;;;3.88;;
46755;SDS011;32506;52.826;-1.192;2023-05-18T05:46:29;7.50;;;3.65;;
46755;SDS011;32506;52.826;-1.192;2023-05-18T05:48:55;7.53;;;3.72;;
46755;SDS011;32506;52.826;-1.192;2023-05-18T05:51:20;7.40;;;4.10;;
46755;SDS011;32506;52.826;-1.192;2023-05-18T05:53:46;7.22;;;3.83;;
46755;SDS011;32506;52.826;-1.192;2023-05-18T05:56:13;7.53;;;4.00;;
46755;SDS011;32506;52.826;-1.192;2023-05-18T05:58:39;6.88;;;3.55;;
46755;SDS011;32506;52.826;-1.192;2023-05-18T06:01:06;5.65;;;2.88;;
46755;SDS011;32506;52.826;-1.192;2023-05-18T06:03:32;5.63;;;3.38;;
46755;SDS011;32506;52.826;-1.192;2023-05-18T06:05:58;6.63;;;3.28;;
46755;SDS011;32506;52.826;-1.192;2023-05-18T06:08:24;6.15;;;3.55;;
46755;SDS011;32506;52.826;-1.192;2023-05-18T06:10:49;6.53;;;3.40;;
46755;SDS011;32506;52.826;-1.192;2023-05-18T06:13:15;5.18;;;2.47;;
46755;SDS011;32506;52.826;-1.192;2023-05-18T06:15:41;5.43;;;2.83;;
46755;SDS011;32506;52.826;-1.192;2023-05-18T06:18:06;6.90;;;3.10;;
46755;SDS011;32506;52.826;-1.192;2023-05-18T06:20:32;4.35;;;2.47;;
46755;SDS011;32506;52.826;-1.192;2023-05-18T06:22:57;5.75;;;2.67;;
46755;SDS011;32506;52.826;-1.192;2023-05-18T06:25:23;5.18;;;3.13;;
46755;SDS011;32506;52.826;-1.192;2023-05-18T06:27:49;5.45;;;2.83;;
46755;SDS011;32506;52.826;-1.192;2023-05-18T06:30:14;5.90;;;2.95;;
46755;SDS011;32506;52.826;-1.192;2023-05-18T06:32:40;5.68;;;2.72;;
46755;SDS011;32506;52.826;-1.192;2023-05-18T06:35:06;5.50;;;2.60;;
46755;SDS011;32506;52.826;-1.192;2023-05-18T06:37:32;6.72;;;2.95;;
46755;SDS011;32506;52.826;-1.192;2023-05-18T06:39:57;5.28;;;2.70;;
46755;SDS011;32506;52.826;-1.192;2023-05-18T06:42:23;6.15;;;2.75;;
46755;SDS011;32506;52.826;-1.192;2023-05-18T06:44:48;6.55;;;3.78;;
46755;SDS011;32506;52.826;-1.192;2023-05-18T06:47:17;4.85;;;2.85;;
46755;SDS011;32506;52.826;-1.192;2023-05-18T06:49:46;5.00;;;2.92;;
46755;SDS011;32506;52.826;-1.192;2023-05-18T06:52:11;5.60;;;3.05;;
46755;SDS011;32506;52.826;-1.192;2023-05-18T06:54:37;6.72;;;3.20;;
46755;SDS011;32506;52.826;-1.192;2023-05-18T06:57:05;7.00;;;3.63;;
46755;SDS011;32506;52.826;-1.192;2023-05-18T06:59:31;4.85;;;2.88;;
46755;SDS011;32506;52.826;-1.192;2023-05-18T07:01:56;5.90;;;3.33;;
46755;SDS011;32506;52.826;-1.192;2023-05-18T07:04:22;6.40;;;3.13;;
46755;SDS011;32506;52.826;-1.192;2023-05-18T07:06:47;5.30;;;3.10;;
46755;SDS011;32506;52.826;-1.192;2023-05-18T07:09:13;7.20;;;4.03;;
46755;SDS011;32506;52.826;-1.192;2023-05-18T07:11:38;7.13;;;3.33;;
46755;SDS011;32506;52.826;-1.192;2023-05-18T07:14:09;5.88;;;3.33;;
46755;SDS011;32506;52.826;-1.192;2023-05-18T07:16:34;4.75;;;3.25;;
46755;SDS011;32506;52.826;-1.192;2023-05-18T07:19:00;6.93;;;3.53;;
46755;SDS011;32506;52.826;-1.192;2023-05-18T07:21:26;6.63;;;3.80;;
46755;SDS011;32506;52.826;-1.192;2023-05-18T07:23:51;6.25;;;3.45;;
46755;SDS011;32506;52.826;-1.192;2023-05-18T07:26:17;5.80;;;3.50;;
46755;SDS011;32506;52.826;-1.192;2023-05-18T07:28:43;5.18;;;3.05;;
46755;SDS011;32506;52.826;-1.192;2023-05-18T07:31:09;7.85;;;4.53;;
46755;SDS011;32506;52.826;-1.192;2023-05-18T07:33:34;6.82;;;3.45;;
46755;SDS011;32506;52.826;-1.192;2023-05-18T07:36:00;7.03;;;3.42;;
46755;SDS011;32506;52.826;-1.192;2023-05-18T07:38:25;7.78;;;3.90;;
46755;SDS011;32506;52.826;-1.192;2023-05-18T07:40:51;7.97;;;3.78;;
46755;SDS011;32506;52.826;-1.192;2023-05-18T07:43:16;7.35;;;3.88;;
46755;SDS011;32506;52.826;-1.192;2023-05-18T07:45:42;4.90;;;3.05;;
46755;SDS011;32506;52.826;-1.192;2023-05-18T07:48:07;6.45;;;3.92;;
46755;SDS011;32506;52.826;-1.192;2023-05-18T07:50:35;6.18;;;3.35;;
46755;SDS011;32506;52.826;-1.192;2023-05-18T07:53:01;6.38;;;3.35;;
46755;SDS011;32506;52.826;-1.192;2023-05-18T07:55:29;7.38;;;3.90;;
46755;SDS011;32506;52.826;-1.192;2023-05-18T07:57:55;9.73;;;3.70;;
46755;SDS011;32506;52.826;-1.192;2023-05-18T08:00:21;5.15;;;3.20;;
46755;SDS011;32506;52.826;-1.192;2023-05-18T08:02:47;5.93;;;3.25;;
46755;SDS011;32506;52.826;-1.192;2023-05-18T08:05:13;6.70;;;2.88;;
46755;SDS011;32506;52.826;-1.192;2023-05-18T08:07:38;5.20;;;3.20;;
46755;SDS011;32506;52.826;-1.192;2023-05-18T08:10:04;4.47;;;2.70;;
46755;SDS011;32506;52.826;-1.192;2023-05-18T08:12:30;6.70;;;3.45;;
46755;SDS011;32506;52.826;-1.192;2023-05-18T08:14:55;4.88;;;3.00;;
46755;SDS011;32506;52.826;-1.192;2023-05-18T08:17:21;5.88;;;3.13;;
46755;SDS011;32506;52.826;-1.192;2023-05-18T08:19:47;6.05;;;3.15;;
46755;SDS011;32506;52.826;-1.192;2023-05-18T08:22:13;6.38;;;3.08;;
46755;SDS011;32506;52.826;-1.192;2023-05-18T08:24:39;4.53;;;2.75;;
46755;SDS011;32506;52.826;-1.192;2023-05-18T08:27:04;4.93;;;2.85;;
46755;SDS011;32506;52.826;-1.192;2023-05-18T08:29:32;6.57;;;3.40;;
46755;SDS011;32506;52.826;-1.192;2023-05-18T08:31:58;5.72;;;2.72;;
46755;SDS011;32506;52.826;-1.192;2023-05-18T08:34:23;4.88;;;2.25;;
46755;SDS011;32506;52.826;-1.192;2023-05-18T08:36:49;5.88;;;2.67;;
46755;SDS011;32506;52.826;-1.192;2023-05-18T08:39:14;5.10;;;2.63;;
46755;SDS011;32506;52.826;-1.192;2023-05-18T08:41:54;7.70;;;3.08;;
46755;SDS011;32506;52.826;-1.192;2023-05-18T08:44:28;4.65;;;2.92;;
46755;SDS011;32506;52.826;-1.192;2023-05-18T08:46:55;5.78;;;2.67;;
46755;SDS011;32506;52.826;-1.192;2023-05-18T08:49:20;6.45;;;2.70;;
46755;SDS011;32506;52.826;-1.192;2023-05-18T08:51:56;4.78;;;2.40;;
46755;SDS011;32506;52.826;-1.192;2023-05-18T08:54:24;5.38;;;2.47;;
46755;SDS011;32506;52.826;-1.192;2023-05-18T08:56:53;6.75;;;3.10;;
46755;SDS011;32506;52.826;-1.192;2023-05-18T08:59:23;3.90;;;2.33;;
46755;SDS011;32506;52.826;-1.192;2023-05-18T09:01:51;4.97;;;2.53;;
46755;SDS011;32506;52.826;-1.192;2023-05-18T09:04:19;5.95;;;2.15;;
46755;SDS011;32506;52.826;-1.192;2023-05-18T09:06:46;5.78;;;2.55;;
46755;SDS011;32506;52.826;-1.192;2023-05-18T09:09:12;4.00;;;2.08;;
46755;SDS011;32506;52.826;-1.192;2023-05-18T09:11:39;3.95;;;2.05;;
46755;SDS011;32506;52.826;-1.192;2023-05-18T09:14:05;4.78;;;2.88;;
46755;SDS011;32506;52.826;-1.192;2023-05-18T09:16:30;5.05;;;2.53;;
46755;SDS011;32506;52.826;-1.192;2023-05-18T09:18:58;5.53;;;2.38;;
46755;SDS011;32506;52.826;-1.192;2023-05-18T09:21:24;4.05;;;2.20;;
46755;SDS011;32506;52.826;-1.192;2023-05-18T09:23:50;4.10;;;2.17;;
46755;SDS011;32506;52.826;-1.192;2023-05-18T09:26:16;4.63;;;2.17;;
46755;SDS011;32506;52.826;-1.192;2023-05-18T09:28:43;4.32;;;2.30;;
46755;SDS011;32506;52.826;-1.192;2023-05-18T09:31:10;3.92;;;2.22;;
46755;SDS011;32506;52.826;-1.192;2023-05-18T09:33:41;3.65;;;2.00;;
46755;SDS011;32506;52.826;-1.192;2023-05-18T09:36:08;3.53;;;2.00;;
46755;SDS011;32506;52.826;-1.192;2023-05-18T09:38:40;4.95;;;2.25;;
46755;SDS011;32506;52.826;-1.192;2023-05-18T09:41:17;5.57;;;2.38;;
46755;SDS011;32506;52.826;-1.192;2023-05-18T09:43:43;2.97;;;2.03;;
46755;SDS011;32506;52.826;-1.192;2023-05-18T09:46:10;3.28;;;2.08;;
46755;SDS011;32506;52.826;-1.192;2023-05-18T09:48:39;3.47;;;2.15;;
46755;SDS011;32506;52.826;-1.192;2023-05-18T09:51:11;3.47;;;2.17;;
46755;SDS011;32506;52.826;-1.192;2023-05-18T09:53:40;4.20;;;2.60;;
46755;SDS011;32506;52.826;-1.192;2023-05-18T09:56:09;2.92;;;2.03;;
46755;SDS011;32506;52.826;-1.192;2023-05-18T09:58:39;3.75;;;2.40;;
46755;SDS011;32506;52.826;-1.192;2023-05-18T10:01:05;5.60;;;3.05;;
46755;SDS011;32506;52.826;-1.192;2023-05-18T10:03:31;4.28;;;2.55;;
46755;SDS011;32506;52.826;-1.192;2023-05-18T10:06:05;4.80;;;2.50;;
46755;SDS011;32506;52.826;-1.192;2023-05-18T10:08:36;3.85;;;2.60;;
46755;SDS011;32506;52.826;-1.192;2023-05-18T10:11:03;4.75;;;2.50;;
46755;SDS011;32506;52.826;-1.192;2023-05-18T10:13:29;4.28;;;3.15;;
46755;SDS011;32506;52.826;-1.192;2023-05-18T10:15:59;3.92;;;2.40;;
46755;SDS011;32506;52.826;-1.192;2023-05-18T10:18:31;6.20;;;2.55;;
46755;SDS011;32506;52.826;-1.192;2023-05-18T10:21:04;5.00;;;2.47;;
46755;SDS011;32506;52.826;-1.192;2023-05-18T10:23:34;4.20;;;2.67;;
46755;SDS011;32506;52.826;-1.192;2023-05-18T10:26:03;3.85;;;2.72;;
46755;SDS011;32506;52.826;-1.192;2023-05-18T10:28:30;3.90;;;2.28;;
46755;SDS011;32506;52.826;-1.192;2023-05-18T10:31:01;3.40;;;2.38;;
46755;SDS011;32506;52.826;-1.192;2023-05-18T10:33:30;4.43;;;2.50;;
46755;SDS011;32506;52.826;-1.192;2023-05-18T10:35:58;3.90;;;2.30;;
46755;SDS011;32506;52.826;-1.192;2023-05-18T10:38:30;4.43;;;2.78;;
46755;SDS011;32506;52.826;-1.192;2023-05-18T10:41:00;3.35;;;2.15;;
46755;SDS011;32506;52.826;-1.192;2023-05-18T10:43:29;4.95;;;3.00;;
46755;SDS011;32506;52.826;-1.192;2023-05-18T10:45:59;3.42;;;2.42;;
46755;SDS011;32506;52.826;-1.192;2023-05-18T10:48:26;3.08;;;2.13;;
46755;SDS011;32506;52.826;-1.192;2023-05-18T10:50:54;2.95;;;1.95;;
46755;SDS011;32506;52.826;-1.192;2023-05-18T10:53:24;4.15;;;2.72;;
46755;SDS011;32506;52.826;-1.192;2023-05-18T10:55:51;3.42;;;2.53;;
46755;SDS011;32506;52.826;-1.192;2023-05-18T10:58:19;4.00;;;2.40;;
46755;SDS011;32506;52.826;-1.192;2023-05-18T11:00:48;3.22;;;2.30;;
46755;SDS011;32506;52.826;-1.192;2023-05-18T11:03:17;4.88;;;2.50;;
46755;SDS011;32506;52.826;-1.192;2023-05-18T11:05:47;5.10;;;2.72;;
46755;SDS011;32506;52.826;-1.192;2023-05-18T11:08:27;4.72;;;2.45;;
46755;SDS011;32506;52.826;-1.192;2023-05-18T11:11:02;3.00;;;2.00;;
46755;SDS011;32506;52.826;-1.192;2023-05-18T11:13:31;6.40;;;2.70;;
46755;SDS011;32506;52.826;-1.192;2023-05-18T11:18:33;4.47;;;2.22;;
46755;SDS011;32506;52.826;-1.192;2023-05-18T11:26:41;5.78;;;3.08;;
46755;SDS011;32506;52.826;-1.192;2023-05-18T11:29:43;4.53;;;2.85;;
46755;SDS011;32506;52.826;-1.192;2023-05-18T11:32:20;3.67;;;3.08;;
46755;SDS011;32506;52.826;-1.192;2023-05-18T11:34:48;4.90;;;2.83;;
46755;SDS011;32506;52.826;-1.192;2023-05-18T11:38:01;3.88;;;2.60;;
46755;SDS011;32506;52.826;-1.192;2023-05-18T11:40:43;4.18;;;2.80;;
46755;SDS011;32506;52.826;-1.192;2023-05-18T11:43:07;4.32;;;2.95;;
46755;SDS011;32506;52.826;-1.192;2023-05-18T11:45:33;5.75;;;2.70;;
46755;SDS011;32506;52.826;-1.192;2023-05-18T11:48:00;3.80;;;2.90;;
46755;SDS011;32506;52.826;-1.192;2023-05-18T11:50:27;3.88;;;2.75;;
46755;SDS011;32506;52.826;-1.192;2023-05-18T11:52:55;3.55;;;2.78;;
46755;SDS011;32506;52.826;-1.192;2023-05-18T11:55:23;4.25;;;2.83;;
46755;SDS011;32506;52.826;-1.192;2023-05-18T11:58:01;4.90;;;3.08;;
46755;SDS011;32506;52.826;-1.192;2023-05-18T12:00:27;5.30;;;3.33;;
46755;SDS011;32506;52.826;-1.192;2023-05-18T12:02:55;4.85;;;2.83;;
46755;SDS011;32506;52.826;-1.192;2023-05-18T12:05:21;4.80;;;2.90;;
46755;SDS011;32506;52.826;-1.192;2023-05-18T12:07:52;6.15;;;3.03;;
46755;SDS011;32506;52.826;-1.192;2023-05-18T12:10:18;4.00;;;2.83;;
46755;SDS011;32506;52.826;-1.192;2023-05-18T12:12:50;3.90;;;2.60;;
46755;SDS011;32506;52.826;-1.192;2023-05-18T12:15:20;5.53;;;2.83;;
46755;SDS011;32506;52.826;-1.192;2023-05-18T12:17:47;3.72;;;2.75;;
46755;SDS011;32506;52.826;-1.192;2023-05-18T12:20:17;3.75;;;2.92;;
46755;SDS011;32506;52.826;-1.192;2023-05-18T12:22:49;4.05;;;2.78;;
46755;SDS011;32506;52.826;-1.192;2023-05-18T12:25:21;4.95;;;2.83;;
46755;SDS011;32506;52.826;-1.192;2023-05-18T12:27:48;5.47;;;3.00;;
46755;SDS011;32506;52.826;-1.192;2023-05-18T12:32:46;5.00;;;2.83;;
46755;SDS011;32506;52.826;-1.192;2023-05-18T12:35:13;4.53;;;2.80;;
46755;SDS011;32506;52.826;-1.192;2023-05-18T12:37:45;4.47;;;3.13;;
46755;SDS011;32506;52.826;-1.192;2023-05-18T12:40:12;3.90;;;3.10;;
46755;SDS011;32506;52.826;-1.192;2023-05-18T12:42:39;4.25;;;2.58;;
46755;SDS011;32506;52.826;-1.192;2023-05-18T12:45:27;3.90;;;2.85;;
46755;SDS011;32506;52.826;-1.192;2023-05-18T12:47:56;4.63;;;3.10;;
46755;SDS011;32506;52.826;-1.192;2023-05-18T12:50:28;5.70;;;2.92;;
46755;SDS011;32506;52.826;-1.192;2023-05-18T12:52:54;5.35;;;2.92;;
46755;SDS011;32506;52.826;-1.192;2023-05-18T12:55:20;3.63;;;2.88;;
46755;SDS011;32506;52.826;-1.192;2023-05-18T12:58:02;4.70;;;2.88;;
46755;SDS011;32506;52.826;-1.192;2023-05-18T13:00:32;3.95;;;2.72;;
46755;SDS011;32506;52.826;-1.192;2023-05-18T13:03:05;6.55;;;3.38;;
46755;SDS011;32506;52.826;-1.192;2023-05-18T13:05:32;4.18;;;3.00;;
46755;SDS011;32506;52.826;-1.192;2023-05-18T13:07:58;4.80;;;3.28;;
46755;SDS011;32506;52.826;-1.192;2023-05-18T13:10:23;5.30;;;3.28;;
46755;SDS011;32506;52.826;-1.192;2023-05-18T13:12:49;4.22;;;2.95;;
46755;SDS011;32506;52.826;-1.192;2023-05-18T13:15:17;4.38;;;3.22;;
46755;SDS011;32506;52.826;-1.192;2023-05-18T13:17:54;4.85;;;2.65;;
46755;SDS011;32506;52.826;-1.192;2023-05-18T13:20:22;4.32;;;2.90;;
46755;SDS011;32506;52.826;-1.192;2023-05-18T13:22:49;5.70;;;3.42;;
46755;SDS011;32506;52.826;-1.192;2023-05-18T13:25:15;4.25;;;3.05;;
46755;SDS011;32506;52.826;-1.192;2023-05-18T13:27:41;4.55;;;3.25;;
46755;SDS011;32506;52.826;-1.192;2023-05-18T13:30:09;5.10;;;3.13;;
46755;SDS011;32506;52.826;-1.192;2023-05-18T13:32:36;5.00;;;3.20;;
46755;SDS011;32506;52.826;-1.192;2023-05-18T13:35:02;5.07;;;2.92;;
46755;SDS011;32506;52.826;-1.192;2023-05-18T13:37:30;4.47;;;3.05;;
46755;SDS011;32506;52.826;-1.192;2023-05-18T13:39:56;3.50;;;2.63;;
46755;SDS011;32506;52.826;-1.192;2023-05-18T13:42:22;4.13;;;2.90;;
46755;SDS011;32506;52.826;-1.192;2023-05-18T13:44:47;4.70;;;3.30;;
46755;SDS011;32506;52.826;-1.192;2023-05-18T13:47:12;6.88;;;3.53;;
46755;SDS011;32506;52.826;-1.192;2023-05-18T13:49:38;5.07;;;3.38;;
46755;SDS011;32506;52.826;-1.192;2023-05-18T13:52:03;5.32;;;3.85;;
46755;SDS011;32506;52.826;-1.192;2023-05-18T13:54:29;4.57;;;3.42;;
46755;SDS011;32506;52.826;-1.192;2023-05-18T13:56:55;5.05;;;3.35;;
46755;SDS011;32506;52.826;-1.192;2023-05-18T13:59:23;6.85;;;4.25;;
46755;SDS011;32506;52.826;-1.192;2023-05-18T14:01:48;6.18;;;3.30;;
46755;SDS011;32506;52.826;-1.192;2023-05-18T14:04:14;4.85;;;3.40;;
46755;SDS011;32506;52.826;-1.192;2023-05-18T14:06:39;5.07;;;3.28;;
46755;SDS011;32506;52.826;-1.192;2023-05-18T14:09:05;5.60;;;3.35;;
46755;SDS011;32506;52.826;-1.192;2023-05-18T14:11:30;4.50;;;2.92;;
46755;SDS011;32506;52.826;-1.192;2023-05-18T14:14:00;5.18;;;3.20;;
46755;SDS011;32506;52.826;-1.192;2023-05-18T14:16:27;5.00;;;3.20;;
46755;SDS011;32506;52.826;-1.192;2023-05-18T14:18:53;5.65;;;3.60;;
46755;SDS011;32506;52.826;-1.192;2023-05-18T14:21:19;4.65;;;3.22;;
46755;SDS011;32506;52.826;-1.192;2023-05-18T14:23:45;5.50;;;3.17;;
46755;SDS011;32506;52.826;-1.192;2023-05-18T14:26:12;4.97;;;3.40;;
46755;SDS011;32506;52.826;-1.192;2023-05-18T14:28:37;6.07;;;3.58;;
46755;SDS011;32506;52.826;-1.192;2023-05-18T14:31:03;5.10;;;3.00;;
46755;SDS011;32506;52.826;-1.192;2023-05-18T14:33:28;4.43;;;2.90;;
46755;SDS011;32506;52.826;-1.192;2023-05-18T14:35:54;6.40;;;3.60;;
46755;SDS011;32506;52.826;-1.192;2023-05-18T14:38:21;6.13;;;3.55;;
46755;SDS011;32506;52.826;-1.192;2023-05-18T14:40:50;7.18;;;3.63;;
46755;SDS011;32506;52.826;-1.192;2023-05-18T14:43:16;6.20;;;3.22;;
46755;SDS011;32506;52.826;-1.192;2023-05-18T14:45:41;5.30;;;3.60;;
46755;SDS011;32506;52.826;-1.192;2023-05-18T14:48:07;5.03;;;3.50;;
46755;SDS011;32506;52.826;-1.192;2023-05-18T14:50:34;5.90;;;3.25;;
46755;SDS011;32506;52.826;-1.192;2023-05-18T14:53:00;6.53;;;3.10;;
46755;SDS011;32506;52.826;-1.192;2023-05-18T14:55:25;8.75;;;3.08;;
46755;SDS011;32506;52.826;-1.192;2023-05-18T14:57:51;5.20;;;3.25;;